Time;durP1;ratioP1;P1;durP2;ratioP2;P2;SDS_P1;SDS_P2;PMS_P1;PMS_P2;Temp;Humidity;BMP_temperature;BMP_pressure;BME280_temperature;BME280_humidity;BME280_pressure;Samples;Min_cycle;Max_cycle;Signal;HPM_P1;HPM_P2
2023/03/26 00:00:47;;;;;;;20.08;10.80;;;;;;;;;;5058705;28;20083;-64
2023/03/26 00:04:26;;;;;;;16.15;10.80;;;;;;;;;;5059203;28;20033;-63
2023/03/26 00:08:09;;;;;;;20.50;10.48;;;;;;;;;;5067006;28;20056;-65
2023/03/26 00:11:49;;;;;;;17.40;11.10;;;;;;;;;;5069379;28;20052;-66
2023/03/26 00:15:30;;;;;;;23.23;10.32;;;;;;;;;;5060759;28;20098;-65
2023/03/26 00:19:10;;;;;;;17.23;9.70;;;;;;;;;;5065224;28;20040;-65
2023/03/26 00:22:52;;;;;;;15.93;9.90;;;;;;;;;;5066701;28;20515;-62
2023/03/26 00:26:32;;;;;;;21.75;11.45;;;;;;;;;;5068844;28;20083;-66
2023/03/26 00:30:12;;;;;;;26.30;10.35;;;;;;;;;;5069973;28;20452;-61
2023/03/26 00:33:54;;;;;;;23.05;11.43;;;;;;;;;;5065811;28;20048;-65
2023/03/26 00:37:34;;;;;;;28.40;11.55;;;;;;;;;;5064642;28;20507;-62
2023/03/26 00:41:16;;;;;;;19.35;11.35;;;;;;;;;;5063075;28;20123;-64
2023/03/26 00:44:57;;;;;;;17.23;10.73;;;;;;;;;;5063142;28;20052;-61
2023/03/26 00:48:37;;;;;;;20.30;10.73;;;;;;;;;;5064413;28;20458;-61
2023/03/26 00:52:17;;;;;;;21.38;11.00;;;;;;;;;;5068300;28;20090;-62
2023/03/26 00:55:59;;;;;;;26.85;10.40;;;;;;;;;;5076765;28;20110;-62
2023/03/26 00:59:38;;;;;;;21.98;10.65;;;;;;;;;;5063998;28;20144;-63
2023/03/26 01:03:18;;;;;;;18.00;11.18;;;;;;;;;;5065891;28;20056;-63
2023/03/26 01:07:02;;;;;;;19.92;10.52;;;;;;;;;;5063996;28;20424;-64
2023/03/26 01:10:42;;;;;;;24.60;10.90;;;;;;;;;;5062657;28;20606;-63
2023/03/26 01:14:27;;;;;;;20.25;9.90;;;;;;;;;;5058948;28;20063;-61
2023/03/26 01:18:08;;;;;;;18.70;9.95;;;;;;;;;;5066580;28;20087;-64
2023/03/26 01:21:08;;;;;;;19.92;10.57;;;;;;;;;;5063473;28;20507;-61
2023/03/26 01:23:43;;;;;;;20.58;10.07;;;;;;;;;;5065022;28;20056;-64
2023/03/26 01:26:28;;;;;;;18.13;9.18;;;;;;;;;;5066336;28;20040;-64
2023/03/26 01:29:00;;;;;;;18.13;9.68;;;;;;;;;;5063742;28;20071;-62
2023/03/26 01:31:42;;;;;;;23.27;9.60;;;;;;;;;;5063262;28;20158;-61
2023/03/26 01:34:32;;;;;;;17.35;9.45;;;;;;;;;;5064016;28;20048;-63
2023/03/26 01:37:31;;;;;;;23.42;9.13;;;;;;;;;;5057114;28;20055;-62
2023/03/26 01:40:22;;;;;;;17.95;9.48;;;;;;;;;;5063347;28;20585;-62
2023/03/26 01:43:08;;;;;;;18.58;9.30;;;;;;;;;;5066168;28;20048;-60
2023/03/26 01:45:37;;;;;;;14.38;8.07;;;;;;;;;;5062974;28;20122;-62
2023/03/26 01:48:03;;;;;;;21.75;9.10;;;;;;;;;;5068125;28;20080;-61
2023/03/26 01:50:32;;;;;;;15.98;9.30;;;;;;;;;;5067458;28;20116;-61
2023/03/26 01:52:58;;;;;;;17.98;9.27;;;;;;;;;;5081065;28;20147;-62
2023/03/26 01:55:55;;;;;;;19.63;10.02;;;;;;;;;;5064411;28;20057;-61
2023/03/26 01:59:30;;;;;;;20.50;9.38;;;;;;;;;;5064321;28;20048;-62
2023/03/26 02:02:41;;;;;;;18.63;9.27;;;;;;;;;;5066168;28;20087;-62
2023/03/26 02:06:29;;;;;;;18.48;9.20;;;;;;;;;;5062306;28;20139;-63
2023/03/26 02:10:09;;;;;;;20.60;9.70;;;;;;;;;;5059978;28;20202;-61
2023/03/26 02:13:48;;;;;;;20.27;9.57;;;;;;;;;;5066555;28;20044;-63
2023/03/26 02:17:31;;;;;;;16.20;8.30;;;;;;;;;;5071096;28;20438;-62
2023/03/26 02:21:08;;;;;;;16.58;7.90;;;;;;;;;;5061590;28;20044;-64
2023/03/26 02:24:49;;;;;;;13.35;6.82;;;;;;;;;;5067618;28;20377;-63
2023/03/26 02:28:29;;;;;;;10.82;6.05;;;;;;;;;;5068985;28;20053;-62
2023/03/26 02:32:12;;;;;;;12.25;5.60;;;;;;;;;;5052567;28;20048;-61
2023/03/26 02:35:53;;;;;;;10.18;4.78;;;;;;;;;;5062580;28;20124;-64
2023/03/26 02:39:33;;;;;;;9.25;4.25;;;;;;;;;;5070668;28;20055;-63
2023/03/26 02:43:15;;;;;;;9.45;4.25;;;;;;;;;;5064017;28;20414;-62
2023/03/26 02:46:55;;;;;;;9.70;3.60;;;;;;;;;;5065939;28;20044;-64
2023/03/26 02:50:35;;;;;;;6.93;3.45;;;;;;;;;;5067463;28;20074;-61
2023/03/26 02:54:16;;;;;;;4.22;3.05;;;;;;;;;;5066155;28;20090;-62
2023/03/26 02:57:56;;;;;;;5.57;3.50;;;;;;;;;;5060237;28;20558;-64
2023/03/26 03:01:41;;;;;;;7.07;3.00;;;;;;;;;;5060288;28;20048;-63
2023/03/26 03:05:17;;;;;;;6.13;3.03;;;;;;;;;;5061866;28;20059;-64
2023/03/26 03:08:58;;;;;;;9.43;3.13;;;;;;;;;;5068231;28;20450;-64
2023/03/26 03:12:38;;;;;;;6.75;3.28;;;;;;;;;;5059608;28;20047;-65
2023/03/26 03:16:18;;;;;;;4.63;2.90;;;;;;;;;;5064842;28;20675;-62
2023/03/26 03:19:59;;;;;;;8.27;2.70;;;;;;;;;;5066495;28;20044;-62
2023/03/26 03:23:39;;;;;;;5.90;2.72;;;;;;;;;;5064439;28;20048;-64
2023/03/26 03:27:21;;;;;;;5.20;2.25;;;;;;;;;;5066397;28;20040;-69
2023/03/26 03:31:00;;;;;;;3.42;2.05;;;;;;;;;;5057374;28;20316;-64
2023/03/26 03:34:41;;;;;;;3.55;2.08;;;;;;;;;;5063643;28;20062;-62
2023/03/26 03:38:22;;;;;;;6.38;2.15;;;;;;;;;;5063278;28;20071;-63
2023/03/26 03:41:23;;;;;;;5.60;2.40;;;;;;;;;;5059102;28;20278;-62
2023/03/26 03:43:50;;;;;;;5.65;2.67;;;;;;;;;;5059002;28;20113;-61
2023/03/26 03:46:56;;;;;;;4.78;1.92;;;;;;;;;;5061049;28;20048;-64
2023/03/26 03:50:36;;;;;;;3.78;1.77;;;;;;;;;;5066441;28;20090;-65
2023/03/26 03:54:16;;;;;;;13.05;2.20;;;;;;;;;;5064918;28;20127;-63
2023/03/26 03:57:17;;;;;;;4.15;2.22;;;;;;;;;;5059239;28;20048;-63
2023/03/26 03:59:43;;;;;;;4.70;1.88;;;;;;;;;;5080948;28;20388;-64
2023/03/26 04:02:09;;;;;;;6.30;1.92;;;;;;;;;;5061225;28;20404;-62
2023/03/26 04:04:37;;;;;;;4.07;1.42;;;;;;;;;;5065115;28;20044;-63
2023/03/26 04:07:04;;;;;;;2.15;1.60;;;;;;;;;;5059894;28;20049;-63
2023/03/26 04:09:31;;;;;;;3.25;1.50;;;;;;;;;;5065595;28;20177;-62
2023/03/26 04:11:57;;;;;;;3.88;1.20;;;;;;;;;;5059157;28;20496;-62
2023/03/26 04:14:23;;;;;;;3.17;1.30;;;;;;;;;;5064975;28;20516;-61
2023/03/26 04:16:49;;;;;;;1.25;0.98;;;;;;;;;;5062616;28;20132;-62
2023/03/26 04:19:54;;;;;;;2.45;1.05;;;;;;;;;;5081117;28;20468;-62
2023/03/26 04:23:35;;;;;;;4.03;1.00;;;;;;;;;;5061747;28;20047;-62
2023/03/26 04:27:15;;;;;;;3.33;1.17;;;;;;;;;;5061532;28;20055;-65
2023/03/26 04:30:56;;;;;;;2.53;1.30;;;;;;;;;;5060191;28;20048;-61
2023/03/26 04:34:36;;;;;;;2.38;1.08;;;;;;;;;;5060341;28;20106;-61
2023/03/26 04:38:18;;;;;;;2.30;1.13;;;;;;;;;;5057386;28;20052;-62
2023/03/26 04:41:59;;;;;;;3.25;1.13;;;;;;;;;;5057564;28;20081;-60
2023/03/26 04:45:38;;;;;;;2.65;1.20;;;;;;;;;;5059195;28;20395;-64
2023/03/26 04:49:19;;;;;;;2.83;1.08;;;;;;;;;;5062360;28;20045;-64
2023/03/26 04:53:01;;;;;;;3.00;1.00;;;;;;;;;;5057063;28;20519;-62
2023/03/26 04:56:16;;;;;;;3.90;1.10;;;;;;;;;;5062557;28;20060;-60
2023/03/26 04:59:56;;;;;;;3.42;1.27;;;;;;;;;;5063421;28;20430;-63
2023/03/26 05:03:39;;;;;;;5.57;1.30;;;;;;;;;;5062194;28;20045;-60
2023/03/26 05:07:17;;;;;;;4.22;1.10;;;;;;;;;;5058686;28;20511;-61
2023/03/26 05:10:57;;;;;;;3.08;0.90;;;;;;;;;;5063400;28;20048;-64
2023/03/26 05:14:37;;;;;;;3.97;1.45;;;;;;;;;;5063475;28;20055;-61
2023/03/26 05:18:18;;;;;;;5.03;1.30;;;;;;;;;;5063211;28;20078;-61
2023/03/26 05:21:58;;;;;;;3.45;1.10;;;;;;;;;;5064653;28;20043;-62
2023/03/26 05:25:38;;;;;;;2.45;0.88;;;;;;;;;;5065868;28;20118;-61
2023/03/26 05:29:21;;;;;;;2.15;1.00;;;;;;;;;;5065350;28;20079;-66
2023/03/26 05:33:01;;;;;;;3.60;1.50;;;;;;;;;;5061217;28;20044;-63
2023/03/26 05:36:47;;;;;;;1.65;1.00;;;;;;;;;;5061816;28;20496;-64
2023/03/26 05:40:11;;;;;;;;;;;;;;;;;;5063606;28;20041;-65
2023/03/26 05:43:47;;;;;;;1.90;1.20;;;;;;;;;;5067641;28;19990;-62
2023/03/26 05:47:27;;;;;;;3.83;1.30;;;;;;;;;;5064545;28;20071;-61
2023/03/26 05:51:11;;;;;;;3.53;1.13;;;;;;;;;;5065942;28;20338;-63
2023/03/26 05:54:51;;;;;;;2.88;1.13;;;;;;;;;;5069283;28;20097;-61
2023/03/26 05:58:33;;;;;;;5.65;1.40;;;;;;;;;;5063842;28;20044;-63
2023/03/26 06:02:13;;;;;;;2.83;1.00;;;;;;;;;;5065884;28;20381;-61
2023/03/26 06:05:54;;;;;;;2.67;1.23;;;;;;;;;;5065346;28;20049;-63
2023/03/26 06:09:36;;;;;;;2.83;1.02;;;;;;;;;;5063430;28;20275;-62
2023/03/26 06:13:16;;;;;;;2.38;1.20;;;;;;;;;;5070060;28;20048;-62
2023/03/26 06:16:56;;;;;;;3.40;1.30;;;;;;;;;;5066353;28;20087;-61
2023/03/26 06:20:36;;;;;;;1.63;1.13;;;;;;;;;;5063071;28;20044;-62
2023/03/26 06:24:18;;;;;;;4.65;1.27;;;;;;;;;;5065633;28;20044;-62
2023/03/26 06:27:57;;;;;;;1.33;0.95;;;;;;;;;;5062875;28;20056;-63
2023/03/26 06:31:39;;;;;;;2.30;1.17;;;;;;;;;;5067092;28;20044;-62
2023/03/26 06:35:20;;;;;;;5.55;1.63;;;;;;;;;;5067615;28;20417;-63
2023/03/26 06:39:00;;;;;;;2.13;1.17;;;;;;;;;;5061965;28;20045;-63
2023/03/26 06:42:42;;;;;;;3.03;1.25;;;;;;;;;;5072464;28;20425;-64
2023/03/26 06:46:23;;;;;;;4.38;1.58;;;;;;;;;;5063234;28;20044;-62
2023/03/26 06:50:02;;;;;;;4.03;1.17;;;;;;;;;;5063057;28;20041;-64
2023/03/26 06:53:43;;;;;;;3.90;1.30;;;;;;;;;;5063837;28;20227;-62
2023/03/26 06:57:23;;;;;;;6.25;1.50;;;;;;;;;;5063333;28;20104;-64
2023/03/26 07:01:03;;;;;;;6.70;1.58;;;;;;;;;;5060696;28;20036;-60
2023/03/26 07:04:44;;;;;;;6.13;1.38;;;;;;;;;;5064378;28;20048;-62
2023/03/26 07:08:24;;;;;;;7.00;2.58;;;;;;;;;;5064580;28;20109;-63
2023/03/26 07:12:05;;;;;;;7.88;2.70;;;;;;;;;;5059370;28;20050;-63
2023/03/26 07:15:45;;;;;;;8.77;3.42;;;;;;;;;;5064414;28;20097;-61
2023/03/26 07:19:25;;;;;;;10.50;3.85;;;;;;;;;;5061599;28;20151;-64
2023/03/26 07:23:07;;;;;;;11.88;3.17;;;;;;;;;;5067505;28;20086;-64
2023/03/26 07:26:46;;;;;;;10.32;2.50;;;;;;;;;;5056586;28;20043;-64
2023/03/26 07:30:28;;;;;;;5.47;1.73;;;;;;;;;;5066304;28;20071;-62
2023/03/26 07:33:38;;;;;;;3.65;1.45;;;;;;;;;;5056977;28;20048;-62
2023/03/26 07:37:21;;;;;;;2.95;1.63;;;;;;;;;;5062463;28;20044;-62
2023/03/26 07:41:31;;;;;;;8.80;2.75;;;;;;;;;;5063573;28;20355;-63
2023/03/26 07:45:10;;;;;;;5.20;1.70;;;;;;;;;;5056499;28;20048;-64
2023/03/26 07:49:00;;;;;;;3.75;1.50;;;;;;;;;;5063726;28;20056;-63
2023/03/26 07:52:39;;;;;;;4.15;1.70;;;;;;;;;;5058743;28;20333;-63
2023/03/26 07:56:13;;;;;;;5.05;1.63;;;;;;;;;;5055577;28;20242;-62
2023/03/26 07:59:56;;;;;;;2.58;1.63;;;;;;;;;;5063747;28;20392;-63
2023/03/26 08:03:35;;;;;;;3.95;1.90;;;;;;;;;;5060476;28;20068;-64
2023/03/26 08:07:18;;;;;;;9.90;2.08;;;;;;;;;;5062817;28;20404;-68
2023/03/26 08:11:10;;;;;;;7.88;2.08;;;;;;;;;;5055041;28;20041;-66
2023/03/26 08:14:50;;;;;;;6.20;1.70;;;;;;;;;;5073603;28;20055;-66
2023/03/26 08:17:47;;;;;;;3.70;1.80;;;;;;;;;;5065616;28;20048;-67
2023/03/26 08:20:21;;;;;;;8.73;1.70;;;;;;;;;;5060932;28;20037;-67
2023/03/26 08:23:50;;;;;;;4.18;1.60;;;;;;;;;;5069958;28;20052;-69
2023/03/26 08:27:14;;;;;;;5.95;1.60;;;;;;;;;;5055393;28;20155;-64
2023/03/26 08:30:14;;;;;;;3.90;1.45;;;;;;;;;;5059319;28;20445;-66
2023/03/26 08:33:55;;;;;;;5.97;1.55;;;;;;;;;;5062334;28;20119;-63
2023/03/26 08:37:35;;;;;;;7.55;1.63;;;;;;;;;;5058329;28;20071;-64
2023/03/26 08:41:49;;;;;;;5.78;1.35;;;;;;;;;;5054695;28;20497;-64
2023/03/26 08:45:54;;;;;;;4.32;1.08;;;;;;;;;;5056363;28;20057;-65
2023/03/26 08:49:35;;;;;;;7.32;1.83;;;;;;;;;;5017677;28;20130;-65
2023/03/26 08:52:57;;;;;;;6.60;1.52;;;;;;;;;;5012890;28;20049;-70
2023/03/26 08:56:25;;;;;;;5.05;1.45;;;;;;;;;;5016880;28;20172;-63
2023/03/26 08:59:45;;;;;;;2.53;1.20;;;;;;;;;;5011420;28;20053;-63
2023/03/26 09:03:10;;;;;;;3.63;1.40;;;;;;;;;;5018067;28;20646;-62
2023/03/26 09:06:28;;;;;;;6.80;1.13;;;;;;;;;;5016823;28;20052;-69
2023/03/26 09:10:13;;;;;;;2.88;1.35;;;;;;;;;;5020778;28;20057;-63
2023/03/26 09:13:38;;;;;;;4.97;1.40;;;;;;;;;;5017854;28;20045;-65
2023/03/26 09:16:48;;;;;;;4.25;1.10;;;;;;;;;;5010032;28;20041;-63
2023/03/26 09:20:52;;;;;;;4.28;1.13;;;;;;;;;;5051617;28;20052;-62
2023/03/26 09:24:26;;;;;;;5.13;1.48;;;;;;;;;;5057267;28;20106;-62
2023/03/26 09:28:19;;;;;;;5.72;1.83;;;;;;;;;;5055993;28;20738;-62
2023/03/26 09:31:24;;;;;;;2.88;1.30;;;;;;;;;;5054317;28;20487;-63
2023/03/26 09:34:43;;;;;;;6.32;1.25;;;;;;;;;;5058564;28;20113;-70
2023/03/26 09:38:19;;;;;;;6.53;1.70;;;;;;;;;;5062403;28;20477;-61
2023/03/26 09:41:31;;;;;;;6.95;1.55;;;;;;;;;;5056246;28;20063;-59
2023/03/26 09:44:55;;;;;;;11.02;1.20;;;;;;;;;;5056313;28;20060;-64
2023/03/26 09:47:55;;;;;;;3.40;1.52;;;;;;;;;;5062205;28;20110;-59
2023/03/26 09:51:34;;;;;;;7.93;1.92;;;;;;;;;;5050226;28;20040;-62
2023/03/26 09:54:56;;;;;;;3.03;1.50;;;;;;;;;;5059118;28;20530;-58
2023/03/26 09:58:18;;;;;;;8.68;1.20;;;;;;;;;;5058712;28;20055;-60
2023/03/26 10:02:00;;;;;;;5.55;1.17;;;;;;;;;;5049161;28;20407;-62
2023/03/26 10:05:42;;;;;;;6.63;1.38;;;;;;;;;;5058024;28;20477;-61
2023/03/26 10:09:06;;;;;;;5.30;1.67;;;;;;;;;;5056090;28;20063;-63
2023/03/26 10:12:30;;;;;;;5.00;1.42;;;;;;;;;;5055348;28;20124;-63
2023/03/26 10:15:59;;;;;;;3.33;0.93;;;;;;;;;;5050400;28;20049;-60
2023/03/26 10:19:18;;;;;;;7.10;1.40;;;;;;;;;;5056984;28;20037;-66
2023/03/26 10:22:42;;;;;;;8.73;1.40;;;;;;;;;;5055473;28;20136;-60
2023/03/26 10:26:13;;;;;;;4.07;1.00;;;;;;;;;;5010440;28;20041;-63
2023/03/26 10:29:52;;;;;;;2.38;0.90;;;;;;;;;;5019673;28;21090;-63
2023/03/26 10:33:14;;;;;;;8.20;1.42;;;;;;;;;;5021459;28;20440;-62
2023/03/26 10:36:54;;;;;;;7.20;1.27;;;;;;;;;;5017031;28;20052;-62
2023/03/26 10:40:44;;;;;;;5.30;1.17;;;;;;;;;;5020424;28;20042;-62
2023/03/26 10:44:23;;;;;;;17.83;1.73;;;;;;;;;;5015521;28;20135;-66
2023/03/26 10:48:04;;;;;;;5.28;1.40;;;;;;;;;;5012139;28;20042;-64
2023/03/26 10:51:24;;;;;;;8.65;1.27;;;;;;;;;;5017790;28;20056;-61
2023/03/26 10:54:42;;;;;;;26.40;2.10;;;;;;;;;;5013164;28;20520;-62
2023/03/26 10:57:45;;;;;;;8.25;1.30;;;;;;;;;;5021538;28;20144;-63
2023/03/26 11:01:37;;;;;;;8.95;1.23;;;;;;;;;;5015192;28;20049;-65
2023/03/26 11:05:03;;;;;;;12.77;1.50;;;;;;;;;;5064027;28;20051;-67
2023/03/26 11:08:43;;;;;;;8.63;1.15;;;;;;;;;;5066997;28;20040;-63
2023/03/26 11:12:05;;;;;;;3.17;1.55;;;;;;;;;;5064122;28;20063;-63
2023/03/26 11:16:06;;;;;;;6.35;1.23;;;;;;;;;;5064000;28;20049;-64
2023/03/26 11:19:27;;;;;;;5.75;1.08;;;;;;;;;;5072342;28;20389;-67
2023/03/26 11:22:47;;;;;;;3.33;1.00;;;;;;;;;;5066151;28;20190;-65
2023/03/26 11:26:06;;;;;;;3.47;1.20;;;;;;;;;;5067429;28;20082;-65
2023/03/26 11:29:35;;;;;;;5.90;1.25;;;;;;;;;;5063339;28;20063;-63
2023/03/26 11:33:31;;;;;;;4.68;1.63;;;;;;;;;;5060179;28;20040;-66
2023/03/26 11:37:11;;;;;;;6.63;1.02;;;;;;;;;;5060413;28;20471;-64
2023/03/26 11:40:58;;;;;;;6.25;1.17;;;;;;;;;;5061261;28;20063;-65
2023/03/26 11:44:38;;;;;;;6.22;1.30;;;;;;;;;;5062698;28;20032;-64
2023/03/26 11:48:22;;;;;;;2.45;0.90;;;;;;;;;;5066039;28;20205;-65
2023/03/26 11:52:14;;;;;;;3.80;0.98;;;;;;;;;;5059764;28;20044;-62
2023/03/26 11:55:54;;;;;;;3.95;0.98;;;;;;;;;;5065903;28;20407;-65
2023/03/26 11:58:59;;;;;;;4.32;1.20;;;;;;;;;;5059644;28;20132;-64
2023/03/26 12:01:29;;;;;;;13.02;1.30;;;;;;;;;;5064460;28;20101;-64
2023/03/26 12:04:34;;;;;;;6.88;1.02;;;;;;;;;;5063098;28;20045;-64
2023/03/26 12:07:36;;;;;;;14.68;1.33;;;;;;;;;;5058757;28;20060;-63
2023/03/26 12:10:15;;;;;;;11.82;1.05;;;;;;;;;;5074228;28;20041;-67
2023/03/26 12:12:44;;;;;;;8.77;1.42;;;;;;;;;;5067288;28;20033;-67
2023/03/26 12:15:20;;;;;;;12.68;1.23;;;;;;;;;;5087179;28;20102;-67
2023/03/26 12:17:52;;;;;;;15.18;1.70;;;;;;;;;;5069729;28;20036;-63
2023/03/26 12:20:27;;;;;;;7.88;1.17;;;;;;;;;;5064560;28;20051;-62
2023/03/26 12:23:41;;;;;;;17.77;2.15;;;;;;;;;;5075263;28;20478;-63
2023/03/26 12:27:21;;;;;;;12.45;1.23;;;;;;;;;;5067661;28;20102;-63
2023/03/26 12:31:11;;;;;;;15.30;1.30;;;;;;;;;;5070886;28;20051;-61
2023/03/26 12:34:55;;;;;;;4.85;1.10;;;;;;;;;;5069057;28;20072;-65
2023/03/26 12:38:16;;;;;;;9.15;1.20;;;;;;;;;;5073970;28;20708;-64
2023/03/26 12:41:56;;;;;;;6.65;1.10;;;;;;;;;;5067161;28;20786;-64
2023/03/26 12:44:57;;;;;;;7.15;1.33;;;;;;;;;;5065464;28;20032;-64
2023/03/26 12:47:43;;;;;;;2.65;0.90;;;;;;;;;;5067977;28;20151;-63
2023/03/26 12:50:14;;;;;;;7.45;0.90;;;;;;;;;;5069251;28;20049;-64
2023/03/26 12:53:01;;;;;;;6.15;0.95;;;;;;;;;;5065061;28;20051;-65
2023/03/26 12:55:48;;;;;;;6.57;1.10;;;;;;;;;;5066956;28;20496;-63
2023/03/26 12:58:42;;;;;;;9.50;0.93;;;;;;;;;;5069571;28;20059;-64
2023/03/26 13:01:33;;;;;;;5.45;0.98;;;;;;;;;;5068454;28;20041;-66
2023/03/26 13:04:17;;;;;;;12.18;1.00;;;;;;;;;;5067144;28;20052;-64
2023/03/26 13:06:52;;;;;;;10.45;1.10;;;;;;;;;;5064387;28;20056;-64
2023/03/26 13:09:37;;;;;;;6.47;1.00;;;;;;;;;;5068760;28;20094;-62
2023/03/26 13:12:39;;;;;;;2.85;1.00;;;;;;;;;;5068154;28;20108;-64
2023/03/26 13:15:35;;;;;;;8.98;0.85;;;;;;;;;;5069927;28;20040;-65
2023/03/26 13:18:33;;;;;;;5.25;0.85;;;;;;;;;;5069160;28;20450;-64
2023/03/26 13:21:21;;;;;;;10.82;0.82;;;;;;;;;;5066971;28;20225;-67
2023/03/26 13:24:00;;;;;;;9.18;1.30;;;;;;;;;;5067092;28;20372;-62
2023/03/26 13:26:52;;;;;;;13.82;1.23;;;;;;;;;;5059053;28;20053;-63
2023/03/26 13:29:32;;;;;;;3.33;1.10;;;;;;;;;;5067162;28;20049;-67
2023/03/26 13:32:17;;;;;;;6.28;0.98;;;;;;;;;;5066331;28;20081;-64
2023/03/26 13:35:14;;;;;;;6.93;1.10;;;;;;;;;;5067085;28;20055;-65
2023/03/26 13:37:57;;;;;;;7.95;0.88;;;;;;;;;;5059078;28;20123;-66
2023/03/26 13:40:51;;;;;;;8.73;0.80;;;;;;;;;;5067555;28;20584;-63
2023/03/26 13:43:47;;;;;;;29.60;2.43;;;;;;;;;;5063358;28;20055;-64
2023/03/26 13:46:35;;;;;;;12.38;0.90;;;;;;;;;;5062201;28;20452;-67
2023/03/26 13:49:14;;;;;;;16.73;1.55;;;;;;;;;;5057647;28;20041;-63
2023/03/26 13:51:43;;;;;;;7.88;1.40;;;;;;;;;;5064591;28;20245;-65
2023/03/26 13:54:15;;;;;;;10.45;1.20;;;;;;;;;;5073343;28;20059;-66
2023/03/26 13:56:47;;;;;;;8.65;1.27;;;;;;;;;;5065852;28;20037;-65
2023/03/26 13:59:57;;;;;;;9.15;1.42;;;;;;;;;;5067940;28;20049;-65
2023/03/26 14:02:32;;;;;;;5.63;0.90;;;;;;;;;;5072577;28;20044;-65
2023/03/26 14:05:41;;;;;;;4.75;0.85;;;;;;;;;;5060862;28;20045;-67
2023/03/26 14:09:22;;;;;;;6.75;1.10;;;;;;;;;;5068529;28;20064;-65
2023/03/26 14:13:03;;;;;;;6.05;0.68;;;;;;;;;;5061409;28;20048;-65
2023/03/26 14:16:57;;;;;;;6.88;0.82;;;;;;;;;;5065156;28;20439;-67
2023/03/26 14:20:23;;;;;;;5.47;0.70;;;;;;;;;;5062024;28;20048;-65
2023/03/26 14:23:50;;;;;;;11.05;1.30;;;;;;;;;;5060325;28;20502;-63
2023/03/26 14:27:08;;;;;;;13.98;0.95;;;;;;;;;;5065920;28;20922;-68
2023/03/26 14:30:21;;;;;;;11.88;1.02;;;;;;;;;;5061216;28;20052;-64
2023/03/26 14:34:01;;;;;;;5.68;0.80;;;;;;;;;;5061098;28;20548;-66
2023/03/26 14:37:22;;;;;;;11.90;1.02;;;;;;;;;;5067029;28;20052;-66
2023/03/26 14:40:41;;;;;;;6.30;0.70;;;;;;;;;;5062947;28;20075;-66
2023/03/26 14:44:19;;;;;;;7.82;0.80;;;;;;;;;;5064330;28;20056;-66
2023/03/26 14:47:59;;;;;;;9.73;0.88;;;;;;;;;;5060652;28;20113;-64
2023/03/26 14:51:37;;;;;;;11.02;0.80;;;;;;;;;;5063736;28;20068;-66
2023/03/26 14:55:17;;;;;;;11.05;0.75;;;;;;;;;;5066144;28;20057;-63
2023/03/26 14:58:46;;;;;;;3.38;0.65;;;;;;;;;;5061519;28;20237;-63
2023/03/26 15:02:21;;;;;;;3.90;0.93;;;;;;;;;;5056899;28;20449;-64
2023/03/26 15:05:57;;;;;;;1.43;0.70;;;;;;;;;;5066991;28;20040;-63
2023/03/26 15:09:20;;;;;;;7.07;0.90;;;;;;;;;;5056554;28;20055;-61
2023/03/26 15:12:58;;;;;;;7.32;1.00;;;;;;;;;;5058711;28;20087;-63
2023/03/26 15:16:20;;;;;;;3.80;0.95;;;;;;;;;;5065661;28;20044;-63
2023/03/26 15:19:52;;;;;;;3.83;0.80;;;;;;;;;;5065781;28;20090;-66
2023/03/26 15:23:12;;;;;;;7.22;0.80;;;;;;;;;;5058922;28;20044;-64
2023/03/26 15:26:29;;;;;;;4.55;0.60;;;;;;;;;;5061961;28;20045;-64
2023/03/26 15:29:49;;;;;;;5.35;0.82;;;;;;;;;;5057007;28;20056;-65
2023/03/26 15:32:28;;;;;;;1.88;0.60;;;;;;;;;;5064542;28;20049;-62
2023/03/26 15:36:04;;;;;;;5.95;1.02;;;;;;;;;;5062629;28;20513;-67
2023/03/26 15:39:17;;;;;;;3.75;0.47;;;;;;;;;;5064451;28;20048;-67
2023/03/26 15:42:52;;;;;;;4.78;0.90;;;;;;;;;;5061562;28;20044;-65
2023/03/26 15:46:43;;;;;;;1.63;0.50;;;;;;;;;;5059469;28;20045;-66
2023/03/26 15:50:29;;;;;;;3.78;0.88;;;;;;;;;;5065280;28;20496;-67
2023/03/26 15:54:12;;;;;;;2.83;0.60;;;;;;;;;;5062604;28;20105;-64
2023/03/26 15:57:42;;;;;;;12.20;1.20;;;;;;;;;;5054808;28;20080;-68
2023/03/26 16:01:08;;;;;;;13.38;1.08;;;;;;;;;;5055057;28;20968;-66
2023/03/26 16:04:34;;;;;;;11.65;1.00;;;;;;;;;;5071554;28;20055;-63
2023/03/26 16:08:17;;;;;;;4.32;0.68;;;;;;;;;;5065168;28;20067;-63
2023/03/26 16:11:54;;;;;;;9.50;0.90;;;;;;;;;;5056358;28;20041;-64
2023/03/26 16:15:38;;;;;;;5.70;0.90;;;;;;;;;;5059084;28;20491;-66
2023/03/26 16:18:41;;;;;;;5.93;0.80;;;;;;;;;;5060451;28;20040;-67
2023/03/26 16:21:29;;;;;;;4.95;0.70;;;;;;;;;;5065161;28;20049;-71
2023/03/26 16:25:09;;;;;;;7.47;0.82;;;;;;;;;;5059290;28;20496;-67
2023/03/26 16:28:10;;;;;;;5.07;0.80;;;;;;;;;;5060473;28;20147;-65
2023/03/26 16:31:16;;;;;;;5.85;0.80;;;;;;;;;;5068206;28;20050;-66
2023/03/26 16:35:17;;;;;;;4.47;0.82;;;;;;;;;;5058765;28;20033;-67
2023/03/26 16:39:04;;;;;;;7.60;0.82;;;;;;;;;;5064931;28;20261;-67
2023/03/26 16:42:14;;;;;;;4.72;0.80;;;;;;;;;;5061867;28;20056;-66
2023/03/26 16:46:02;;;;;;;6.18;0.90;;;;;;;;;;5061097;28;20040;-65
2023/03/26 16:49:45;;;;;;;8.82;0.98;;;;;;;;;;5061083;28;20048;-69
2023/03/26 16:53:17;;;;;;;6.05;1.13;;;;;;;;;;5058516;28;20075;-65
2023/03/26 16:56:26;;;;;;;3.92;1.00;;;;;;;;;;5060593;28;20051;-67
2023/03/26 16:59:35;;;;;;;7.15;0.88;;;;;;;;;;5065632;28;20040;-67
2023/03/26 17:02:59;;;;;;;2.47;0.73;;;;;;;;;;5062568;28;20037;-65
2023/03/26 17:06:04;;;;;;;5.75;0.93;;;;;;;;;;5063100;28;20052;-66
2023/03/26 17:09:42;;;;;;;7.93;1.02;;;;;;;;;;5061555;28;20114;-67
2023/03/26 17:13:25;;;;;;;1.30;0.80;;;;;;;;;;5070520;28;20075;-68
2023/03/26 17:17:26;;;;;;;5.47;0.90;;;;;;;;;;5059215;28;20512;-64
2023/03/26 17:20:58;;;;;;;1.52;0.52;;;;;;;;;;5064146;28;20611;-66
2023/03/26 17:24:25;;;;;;;8.18;1.27;;;;;;;;;;5065532;28;20492;-69
2023/03/26 17:28:05;;;;;;;1.17;0.68;;;;;;;;;;5056658;28;20093;-68
2023/03/26 17:32:00;;;;;;;3.67;0.75;;;;;;;;;;5062738;28;20131;-69
2023/03/26 17:35:41;;;;;;;3.70;0.85;;;;;;;;;;5062096;28;20098;-68
2023/03/26 17:38:45;;;;;;;3.05;0.73;;;;;;;;;;5059161;28;20048;-69
2023/03/26 17:42:37;;;;;;;1.25;0.60;;;;;;;;;;5060495;28;20056;-68
2023/03/26 17:46:17;;;;;;;3.10;0.80;;;;;;;;;;5067455;28;20059;-68
2023/03/26 17:49:58;;;;;;;6.55;1.05;;;;;;;;;;5064898;28;20049;-68
2023/03/26 17:53:44;;;;;;;2.53;0.70;;;;;;;;;;5063398;28;20101;-69
2023/03/26 17:57:24;;;;;;;1.00;0.80;;;;;;;;;;5059309;28;20087;-68
2023/03/26 18:01:06;;;;;;;1.33;0.80;;;;;;;;;;5059319;28;20443;-67
2023/03/26 18:04:32;;;;;;;5.15;0.80;;;;;;;;;;5066729;28;20037;-68
2023/03/26 18:07:57;;;;;;;3.45;0.90;;;;;;;;;;5067807;28;20105;-66
2023/03/26 18:11:22;;;;;;;1.73;0.70;;;;;;;;;;5062632;28;20499;-66
2023/03/26 18:14:54;;;;;;;1.40;0.80;;;;;;;;;;5062975;28;20177;-64
2023/03/26 18:18:32;;;;;;;6.82;1.08;;;;;;;;;;4986241;28;20038;-63
2023/03/26 18:22:19;;;;;;;2.03;0.93;;;;;;;;;;4983299;28;20064;-69
2023/03/26 18:26:06;;;;;;;3.08;1.08;;;;;;;;;;4981790;28;20048;-64
2023/03/26 18:29:47;;;;;;;6.32;1.08;;;;;;;;;;4986193;28;20049;-66
2023/03/26 18:32:33;;;;;;;6.20;1.38;;;;;;;;;;4983814;28;20042;-66
2023/03/26 18:35:39;;;;;;;5.25;1.20;;;;;;;;;;4990463;28;20038;-68
2023/03/26 18:39:19;;;;;;;2.38;1.20;;;;;;;;;;4978265;28;22694;-66
2023/03/26 18:43:00;;;;;;;4.43;1.20;;;;;;;;;;4976151;28;20478;-66
2023/03/26 18:46:41;;;;;;;1.42;0.93;;;;;;;;;;4980574;28;20046;-67
2023/03/26 18:50:22;;;;;;;2.10;1.25;;;;;;;;;;4986206;28;20046;-67
2023/03/26 18:54:02;;;;;;;10.45;1.60;;;;;;;;;;5008240;28;20062;-67
2023/03/26 18:57:49;;;;;;;2.97;1.10;;;;;;;;;;5051736;28;20672;-67
2023/03/26 19:01:29;;;;;;;5.95;1.30;;;;;;;;;;5052833;28;20884;-69
2023/03/26 19:05:09;;;;;;;4.63;0.90;;;;;;;;;;5056873;28;20217;-66
2023/03/26 19:08:52;;;;;;;9.25;1.10;;;;;;;;;;5054530;28;20270;-68
2023/03/26 19:12:36;;;;;;;3.88;1.50;;;;;;;;;;5054564;28;20047;-68
2023/03/26 19:16:16;;;;;;;4.85;1.60;;;;;;;;;;5053964;28;20174;-67
2023/03/26 19:19:57;;;;;;;5.47;1.40;;;;;;;;;;5050814;28;20552;-67
2023/03/26 19:23:38;;;;;;;9.27;1.80;;;;;;;;;;5050371;28;20060;-67
2023/03/26 19:27:18;;;;;;;4.85;1.20;;;;;;;;;;5049508;28;20256;-65
2023/03/26 19:31:08;;;;;;;2.47;1.60;;;;;;;;;;5056158;28;20080;-67
2023/03/26 19:34:16;;;;;;;6.68;1.55;;;;;;;;;;5054528;28;20040;-65
2023/03/26 19:37:55;;;;;;;4.82;1.35;;;;;;;;;;5052162;28;20513;-64
2023/03/26 19:41:53;;;;;;;6.82;1.77;;;;;;;;;;5050339;28;22230;-68
2023/03/26 19:45:33;;;;;;;4.45;1.80;;;;;;;;;;5049861;28;20379;-68
2023/03/26 19:49:13;;;;;;;5.75;2.33;;;;;;;;;;5051963;28;20285;-66
2023/03/26 19:52:17;;;;;;;10.73;2.30;;;;;;;;;;5054665;28;20044;-68
2023/03/26 19:55:58;;;;;;;10.60;2.85;;;;;;;;;;5049833;28;20055;-67
2023/03/26 19:59:38;;;;;;;6.55;2.13;;;;;;;;;;5054790;28;20123;-67
2023/03/26 20:03:19;;;;;;;4.38;2.03;;;;;;;;;;5052954;28;20054;-68
2023/03/26 20:07:00;;;;;;;4.95;2.33;;;;;;;;;;5067769;28;20412;-68
2023/03/26 20:10:39;;;;;;;7.60;2.42;;;;;;;;;;5060796;28;20048;-69
2023/03/26 20:14:24;;;;;;;4.03;2.00;;;;;;;;;;5062216;28;20094;-67
2023/03/26 20:18:02;;;;;;;3.50;1.50;;;;;;;;;;5065563;28;20075;-67
2023/03/26 20:21:41;;;;;;;3.92;1.63;;;;;;;;;;5061534;28;20345;-65
2023/03/26 20:25:22;;;;;;;4.72;1.65;;;;;;;;;;5060162;28;20070;-67
2023/03/26 20:29:02;;;;;;;6.13;2.45;;;;;;;;;;5060995;28;20110;-67